Ever Salute — 3ENU5 — position and weather

sailwx.info

Track history (hours):
 
Tides and Currents Weather Stations Pressure Air Temp Water Temp Dewpoint Dewpoint Depression Visibility Wind Speed Wind Dir Waves Ship Positions

Ever Salute

Last reported at 2018-Apr-17 20:07 UTC. Time now 2018-Apr-19 17:16 UTC.
Position N 23°40' E 119°56'.

Length 300 m; draft 12.2 m.

Type: Ship (hazmat cat D). MMSI: 352725000.

Date/timePositionNaut miles runAvg speedWind from/ knotsBaromVisibWave heightAir tempDewpointWater temp
2018-Apr-17 20:07N 23°40' E 119°56'217.7
2018-Apr-17 20:00N 23°38' E 119°56'917.6
2018-Apr-17 19:30N 23°30' E 119°56'917.8
2018-Apr-17 19:00N 23°21' E 119°54'2416.9
2018-Apr-17 17:35N 22°57' E 119°60'114.4
2018-Apr-17 17:30N 22°56' E 120°00'613.0
2018-Apr-17 17:00N 22°51' E 120°04'510.5
2018-Apr-17 16:30N 22°46' E 120°06'510.9
2018-Apr-17 16:00N 22°41' E 120°09'611.5
2018-Apr-17 15:30N 22°36' E 120°12'510.4
2018-Apr-17 15:00N 22°33' E 120°16'3 7.0
2018-Apr-17 14:30N 22°33' E 120°20'0 0.6
2018-Apr-17 13:59N 22°33' E 120°20'0 0.0
2018-Apr-17 13:29N 22°33' E 120°20'0 0.0
2018-Apr-17 12:59N 22°33' E 120°20'0 0.1
2018-Apr-17 12:29N 22°33' E 120°20'0 0.1
2018-Apr-17 11:59N 22°33' E 120°20'0 0.0
2018-Apr-17 11:29N 22°33' E 120°20'0 0.0
2018-Apr-17 10:56N 22°33' E 120°20'0 0.0
2018-Apr-17 10:29N 22°33' E 120°20'0 0.0
2018-Apr-17 09:59N 22°33' E 120°20'0 0.0
2018-Apr-17 09:29N 22°33' E 120°20'0 0.0
2018-Apr-17 08:59N 22°33' E 120°20'0 0.0
2018-Apr-17 08:23N 22°33' E 120°20'0 0.0
2018-Apr-17 07:59N 22°33' E 120°20'0 0.0
2018-Apr-17 07:29N 22°33' E 120°20'0 0.0
2018-Apr-17 06:59N 22°33' E 120°20'0 0.0
2018-Apr-17 06:29N 22°33' E 120°20'0 0.0
2018-Apr-17 05:59N 22°33' E 120°20'0 0.0
2018-Apr-17 05:29N 22°33' E 120°20'0 0.0
2018-Apr-17 04:59N 22°33' E 120°20'0 0.0
2018-Apr-17 04:29N 22°33' E 120°20'0 0.0
2018-Apr-17 03:59N 22°33' E 120°20'0 0.0
2018-Apr-17 03:29N 22°33' E 120°20'0 0.0
2018-Apr-17 02:59N 22°33' E 120°20'0 0.0
2018-Apr-17 02:29N 22°33' E 120°20'0 0.0
2018-Apr-17 01:59N 22°33' E 120°20'0 0.0
2018-Apr-17 01:29N 22°33' E 120°20'0 0.0
2018-Apr-17 00:59N 22°33' E 120°20'0 0.0
2018-Apr-17 00:29N 22°33' E 120°20'0 0.0
2018-Apr-16 23:59N 22°33' E 120°20'0 0.0
2018-Apr-16 23:29N 22°33' E 120°20'0 0.0
2018-Apr-16 22:59N 22°33' E 120°20'0 0.0
2018-Apr-16 22:29N 22°33' E 120°20'0 0.0
2018-Apr-16 21:59N 22°33' E 120°20'0 0.0
2018-Apr-16 21:29N 22°33' E 120°20'0 0.0
2018-Apr-16 20:59N 22°33' E 120°20'0 0.0
2018-Apr-16 20:29N 22°33' E 120°20'0 0.0
2018-Apr-16 19:59N 22°33' E 120°20'0 0.0
2018-Apr-16 19:29N 22°33' E 120°20'0 0.0
2018-Apr-16 18:59N 22°33' E 120°20'0 0.0
2018-Apr-16 18:29N 22°33' E 120°20'0 0.0
2018-Apr-16 17:59N 22°33' E 120°20'0 0.0
2018-Apr-16 17:29N 22°33' E 120°20'0 0.0
2018-Apr-16 17:00N 22°33' E 120°20'3 5.8
2018-Apr-16 16:30N 22°33' E 120°17'2 4.2
2018-Apr-16 16:01N 22°32' E 120°15'3 6.1
2018-Apr-16 15:30N 22°31' E 120°11'2 3.0
2018-Apr-16 15:00N 22°31' E 120°10'5 9.2
2018-Apr-16 14:30N 22°31' E 120°05'5 9.5
2018-Apr-16 14:00N 22°30' E 119°60'5 9.5
2018-Apr-16 13:30N 22°30' E 119°55'5 9.9
2018-Apr-16 13:00N 22°29' E 119°49'2114.3
2018-Apr-16 11:32N 22°26' E 119°27'  
2018-Apr-13 14:43N 22°18' E 117°33'817.6
2018-Apr-13 14:17N 22°18' E 117°41'617.8
2018-Apr-13 13:58N 22°17' E 117°47'11418.0
2018-Apr-13 07:38N 22°32' E 119°50'214.3
2018-Apr-13 07:30N 22°32' E 119°52'612.1
2018-Apr-13 07:00N 22°32' E 119°58'611.3
2018-Apr-13 06:30N 22°32' E 120°04'510.9
2018-Apr-13 06:00N 22°33' E 120°10'510.7
2018-Apr-13 05:30N 22°33' E 120°16'4 7.5
2018-Apr-13 05:00N 22°33' E 120°20'0 0.3
2018-Apr-13 04:26N 22°33' E 120°20'0 0.0
2018-Apr-13 03:50N 22°33' E 120°20'0 0.0
2018-Apr-13 03:30N 22°33' E 120°20'0 0.0
2018-Apr-13 02:56N 22°33' E 120°20'0 0.0
2018-Apr-13 02:29N 22°33' E 120°20'0 0.0
2018-Apr-13 01:59N 22°33' E 120°20'0 0.0
2018-Apr-13 01:29N 22°33' E 120°20'0 0.0
2018-Apr-13 00:56N 22°33' E 120°20'0 0.0
2018-Apr-13 00:29N 22°33' E 120°20'0 0.0
2018-Apr-12 23:59N 22°33' E 120°20'0 0.0
2018-Apr-12 23:30N 22°33' E 120°20'0 0.0
2018-Apr-12 22:56N 22°33' E 120°20'0 0.0
2018-Apr-12 22:29N 22°33' E 120°20'0 0.0
2018-Apr-12 22:00N 22°33' E 120°20'0 0.0
2018-Apr-12 21:29N 22°33' E 120°20'0 0.0
2018-Apr-12 20:59N 22°33' E 120°20'0 0.0
2018-Apr-12 20:30N 22°33' E 120°20'0 0.0
2018-Apr-12 20:00N 22°33' E 120°20'0 0.0
2018-Apr-12 19:30N 22°33' E 120°20'0 0.0
2018-Apr-12 19:00N 22°33' E 120°20'0 0.0
2018-Apr-12 18:29N 22°33' E 120°20'0 0.0
2018-Apr-12 17:59N 22°33' E 120°20'0 0.0
2018-Apr-12 17:29N 22°33' E 120°20'0 0.0
2018-Apr-12 17:00N 22°33' E 120°20'0 0.0
2018-Apr-12 16:30N 22°33' E 120°20'0 0.0
2018-Apr-12 15:53N 22°33' E 120°20'0 0.0
2018-Apr-12 15:26N 22°33' E 120°20'0 0.0
2018-Apr-12 14:56N 22°33' E 120°20'0 0.0
2018-Apr-12 14:29N 22°33' E 120°20'0 0.0
2018-Apr-12 13:59N 22°33' E 120°20'0 0.0
2018-Apr-12 13:30N 22°33' E 120°20'0 0.0
2018-Apr-12 13:00N 22°33' E 120°20'0 0.0
2018-Apr-12 12:30N 22°33' E 120°20'0 0.0
2018-Apr-12 12:00N 22°33' E 120°20'0 0.0
2018-Apr-12 11:30N 22°33' E 120°20'0 0.0
2018-Apr-12 11:00N 22°33' E 120°20'0 0.0
2018-Apr-12 10:30N 22°33' E 120°20'0 0.0
2018-Apr-12 10:00N 22°33' E 120°20'0 0.0
2018-Apr-12 09:30N 22°33' E 120°20'0 0.0
2018-Apr-12 09:00N 22°33' E 120°20'1 1.2
2018-Apr-12 08:30N 22°33' E 120°19'3 6.5
2018-Apr-12 08:00N 22°32' E 120°16'4 8.0
2018-Apr-12 07:30N 22°33' E 120°12'611.5
2018-Apr-12 07:00N 22°38' E 120°09'611.5
2018-Apr-12 06:30N 22°43' E 120°06'611.3
2018-Apr-12 06:00N 22°48' E 120°03'611.4
2018-Apr-12 05:30N 22°53' E 119°59'917.7
2018-Apr-12 05:00N 23°01' E 119°55'1016.7
2018-Apr-12 04:26N 23°11' E 119°55'716.1
2018-Apr-12 04:00N 23°18' E 119°55'1017.5
2018-Apr-12 03:26N 23°27' E 119°52'817.5
2018-Apr-12 03:01N 23°35' E 119°53'917.1
2018-Apr-12 02:30N 23°43' E 119°53'10616.6
2018-Apr-11 20:08N 25°15' E 120°50'217.3
2018-Apr-11 20:00N 25°17' E 120°52'916.9
2018-Apr-11 19:29N 25°24' E 120°58'816.9
2018-Apr-11 18:59N 25°31' E 121°04'69217.0
2018-Apr-10 02:21N 34°14' E 129°47'716.2
2018-Apr-10 01:54N 34°19' E 129°54'616.5
2018-Apr-10 01:30N 34°23' E 129°60'916.5
2018-Apr-10 00:58N 34°29' E 130°08'918.1
2018-Apr-10 00:30N 34°34' E 130°16'918.1
2018-Apr-09 23:59N 34°40' E 130°24'1016.9
2018-Apr-09 23:24N 34°47' E 130°33'1117.0
2018-Apr-09 22:44N 34°55' E 130°44'59816.6
2018-Apr-08 10:37N 41°24' E 140°20'214.1
2018-Apr-08 10:28N 41°25' E 140°23'715.4
2018-Apr-08 10:00N 41°29' E 140°31'714.5
2018-Apr-08 09:30N 41°33' E 140°39'713.9
2018-Apr-08 09:00N 41°37' E 140°47'713.2
2018-Apr-08 08:31N 41°38' E 140°55'612.8
2018-Apr-08 08:00N 41°39' E 141°04'815.3
2018-Apr-08 07:30N 41°40' E 141°14'816.1
2018-Apr-08 07:00N 41°41' E 141°24'815.2
2018-Apr-08 06:30N 41°39' E 141°34'  
Track history (hours):
 
Tides and Currents Weather Stations Pressure Air Temp Water Temp Dewpoint Dewpoint Depression Visibility Wind Speed Wind Dir Waves Ship Positions

Ever Salute

Last reported at 2018-Apr-17 20:07 UTC. Time now 2018-Apr-19 17:16 UTC.
Position N 23°40' E 119°56'.

Length 300 m; draft 12.2 m.

Type: Ship (hazmat cat D). MMSI: 352725000.

Date/timePositionNaut miles runAvg speedWind from/ knotsBaromVisibWave heightAir tempDewpointWater temp
2018-Apr-17 20:07N 23°40' E 119°56'217.7
2018-Apr-17 20:00N 23°38' E 119°56'917.6
2018-Apr-17 19:30N 23°30' E 119°56'917.8
2018-Apr-17 19:00N 23°21' E 119°54'2416.9
2018-Apr-17 17:35N 22°57' E 119°60'114.4
2018-Apr-17 17:30N 22°56' E 120°00'613.0
2018-Apr-17 17:00N 22°51' E 120°04'510.5
2018-Apr-17 16:30N 22°46' E 120°06'510.9
2018-Apr-17 16:00N 22°41' E 120°09'611.5
2018-Apr-17 15:30N 22°36' E 120°12'510.4
2018-Apr-17 15:00N 22°33' E 120°16'3 7.0
2018-Apr-17 14:30N 22°33' E 120°20'0 0.6
2018-Apr-17 13:59N 22°33' E 120°20'0 0.0
2018-Apr-17 13:29N 22°33' E 120°20'0 0.0
2018-Apr-17 12:59N 22°33' E 120°20'0 0.1
2018-Apr-17 12:29N 22°33' E 120°20'0 0.1
2018-Apr-17 11:59N 22°33' E 120°20'0 0.0
2018-Apr-17 11:29N 22°33' E 120°20'0 0.0
2018-Apr-17 10:56N 22°33' E 120°20'0 0.0
2018-Apr-17 10:29N 22°33' E 120°20'0 0.0
2018-Apr-17 09:59N 22°33' E 120°20'0 0.0
2018-Apr-17 09:29N 22°33' E 120°20'0 0.0
2018-Apr-17 08:59N 22°33' E 120°20'0 0.0
2018-Apr-17 08:23N 22°33' E 120°20'0 0.0
2018-Apr-17 07:59N 22°33' E 120°20'0 0.0
2018-Apr-17 07:29N 22°33' E 120°20'0 0.0
2018-Apr-17 06:59N 22°33' E 120°20'0 0.0
2018-Apr-17 06:29N 22°33' E 120°20'0 0.0
2018-Apr-17 05:59N 22°33' E 120°20'0 0.0
2018-Apr-17 05:29N 22°33' E 120°20'0 0.0
2018-Apr-17 04:59N 22°33' E 120°20'0 0.0
2018-Apr-17 04:29N 22°33' E 120°20'0 0.0
2018-Apr-17 03:59N 22°33' E 120°20'0 0.0
2018-Apr-17 03:29N 22°33' E 120°20'0 0.0
2018-Apr-17 02:59N 22°33' E 120°20'0 0.0
2018-Apr-17 02:29N 22°33' E 120°20'0 0.0
2018-Apr-17 01:59N 22°33' E 120°20'0 0.0
2018-Apr-17 01:29N 22°33' E 120°20'0 0.0
2018-Apr-17 00:59N 22°33' E 120°20'0 0.0
2018-Apr-17 00:29N 22°33' E 120°20'0 0.0
2018-Apr-16 23:59N 22°33' E 120°20'0 0.0
2018-Apr-16 23:29N 22°33' E 120°20'0 0.0
2018-Apr-16 22:59N 22°33' E 120°20'0 0.0
2018-Apr-16 22:29N 22°33' E 120°20'0 0.0
2018-Apr-16 21:59N 22°33' E 120°20'0 0.0
2018-Apr-16 21:29N 22°33' E 120°20'0 0.0
2018-Apr-16 20:59N 22°33' E 120°20'0 0.0
2018-Apr-16 20:29N 22°33' E 120°20'0 0.0
2018-Apr-16 19:59N 22°33' E 120°20'0 0.0
2018-Apr-16 19:29N 22°33' E 120°20'0 0.0
2018-Apr-16 18:59N 22°33' E 120°20'0 0.0
2018-Apr-16 18:29N 22°33' E 120°20'0 0.0
2018-Apr-16 17:59N 22°33' E 120°20'0 0.0
2018-Apr-16 17:29N 22°33' E 120°20'0 0.0
2018-Apr-16 17:00N 22°33' E 120°20'3 5.8
2018-Apr-16 16:30N 22°33' E 120°17'2 4.2
2018-Apr-16 16:01N 22°32' E 120°15'3 6.1
2018-Apr-16 15:30N 22°31' E 120°11'2 3.0
2018-Apr-16 15:00N 22°31' E 120°10'5 9.2
2018-Apr-16 14:30N 22°31' E 120°05'5 9.5
2018-Apr-16 14:00N 22°30' E 119°60'5 9.5
2018-Apr-16 13:30N 22°30' E 119°55'5 9.9
2018-Apr-16 13:00N 22°29' E 119°49'2114.3
2018-Apr-16 11:32N 22°26' E 119°27'  
2018-Apr-13 14:43N 22°18' E 117°33'817.6
2018-Apr-13 14:17N 22°18' E 117°41'617.8
2018-Apr-13 13:58N 22°17' E 117°47'11418.0
2018-Apr-13 07:38N 22°32' E 119°50'214.3
2018-Apr-13 07:30N 22°32' E 119°52'612.1
2018-Apr-13 07:00N 22°32' E 119°58'611.3
2018-Apr-13 06:30N 22°32' E 120°04'510.9
2018-Apr-13 06:00N 22°33' E 120°10'510.7
2018-Apr-13 05:30N 22°33' E 120°16'4 7.5
2018-Apr-13 05:00N 22°33' E 120°20'0 0.3
2018-Apr-13 04:26N 22°33' E 120°20'0 0.0
2018-Apr-13 03:50N 22°33' E 120°20'0 0.0
2018-Apr-13 03:30N 22°33' E 120°20'0 0.0
2018-Apr-13 02:56N 22°33' E 120°20'0 0.0
2018-Apr-13 02:29N 22°33' E 120°20'0 0.0
2018-Apr-13 01:59N 22°33' E 120°20'0 0.0
2018-Apr-13 01:29N 22°33' E 120°20'0 0.0
2018-Apr-13 00:56N 22°33' E 120°20'0 0.0
2018-Apr-13 00:29N 22°33' E 120°20'0 0.0
2018-Apr-12 23:59N 22°33' E 120°20'0 0.0
2018-Apr-12 23:30N 22°33' E 120°20'0 0.0
2018-Apr-12 22:56N 22°33' E 120°20'0 0.0
2018-Apr-12 22:29N 22°33' E 120°20'0 0.0
2018-Apr-12 22:00N 22°33' E 120°20'0 0.0
2018-Apr-12 21:29N 22°33' E 120°20'0 0.0
2018-Apr-12 20:59N 22°33' E 120°20'0 0.0
2018-Apr-12 20:30N 22°33' E 120°20'0 0.0
2018-Apr-12 20:00N 22°33' E 120°20'0 0.0
2018-Apr-12 19:30N 22°33' E 120°20'0 0.0
2018-Apr-12 19:00N 22°33' E 120°20'0 0.0
2018-Apr-12 18:29N 22°33' E 120°20'0 0.0
2018-Apr-12 17:59N 22°33' E 120°20'0 0.0
2018-Apr-12 17:29N 22°33' E 120°20'0 0.0
2018-Apr-12 17:00N 22°33' E 120°20'0 0.0
2018-Apr-12 16:30N 22°33' E 120°20'0 0.0
2018-Apr-12 15:53N 22°33' E 120°20'0 0.0
2018-Apr-12 15:26N 22°33' E 120°20'0 0.0
2018-Apr-12 14:56N 22°33' E 120°20'0 0.0
2018-Apr-12 14:29N 22°33' E 120°20'0 0.0
2018-Apr-12 13:59N 22°33' E 120°20'0 0.0
2018-Apr-12 13:30N 22°33' E 120°20'0 0.0
2018-Apr-12 13:00N 22°33' E 120°20'0 0.0
2018-Apr-12 12:30N 22°33' E 120°20'0 0.0
2018-Apr-12 12:00N 22°33' E 120°20'0 0.0
2018-Apr-12 11:30N 22°33' E 120°20'0 0.0
2018-Apr-12 11:00N 22°33' E 120°20'0 0.0
2018-Apr-12 10:30N 22°33' E 120°20'0 0.0
2018-Apr-12 10:00N 22°33' E 120°20'0 0.0
2018-Apr-12 09:30N 22°33' E 120°20'0 0.0
2018-Apr-12 09:00N 22°33' E 120°20'1 1.2
2018-Apr-12 08:30N 22°33' E 120°19'3 6.5
2018-Apr-12 08:00N 22°32' E 120°16'4 8.0
2018-Apr-12 07:30N 22°33' E 120°12'611.5
2018-Apr-12 07:00N 22°38' E 120°09'611.5
2018-Apr-12 06:30N 22°43' E 120°06'611.3
2018-Apr-12 06:00N 22°48' E 120°03'611.4
2018-Apr-12 05:30N 22°53' E 119°59'917.7
2018-Apr-12 05:00N 23°01' E 119°55'1016.7
2018-Apr-12 04:26N 23°11' E 119°55'716.1
2018-Apr-12 04:00N 23°18' E 119°55'1017.5
2018-Apr-12 03:26N 23°27' E 119°52'817.5
2018-Apr-12 03:01N 23°35' E 119°53'917.1
2018-Apr-12 02:30N 23°43' E 119°53'10616.6
2018-Apr-11 20:08N 25°15' E 120°50'217.3
2018-Apr-11 20:00N 25°17' E 120°52'916.9
2018-Apr-11 19:29N 25°24' E 120°58'816.9
2018-Apr-11 18:59N 25°31' E 121°04'69217.0
2018-Apr-10 02:21N 34°14' E 129°47'716.2
2018-Apr-10 01:54N 34°19' E 129°54'616.5
2018-Apr-10 01:30N 34°23' E 129°60'916.5
2018-Apr-10 00:58N 34°29' E 130°08'918.1
2018-Apr-10 00:30N 34°34' E 130°16'918.1
2018-Apr-09 23:59N 34°40' E 130°24'1016.9
2018-Apr-09 23:24N 34°47' E 130°33'1117.0
2018-Apr-09 22:44N 34°55' E 130°44'59816.6
2018-Apr-08 10:37N 41°24' E 140°20'214.1
2018-Apr-08 10:28N 41°25' E 140°23'715.4
2018-Apr-08 10:00N 41°29' E 140°31'714.5
2018-Apr-08 09:30N 41°33' E 140°39'713.9
2018-Apr-08 09:00N 41°37' E 140°47'713.2
2018-Apr-08 08:31N 41°38' E 140°55'612.8
2018-Apr-08 08:00N 41°39' E 141°04'815.3
2018-Apr-08 07:30N 41°40' E 141°14'816.1
2018-Apr-08 07:00N 41°41' E 141°24'815.2
2018-Apr-08 06:30N 41°39' E 141°34'  

Dump ship's entire track history